createdAt,value
2022-10-03T00:00:44.495Z,0
2022-10-03T00:05:44.459Z,0
2022-10-03T00:10:44.500Z,0
2022-10-03T00:15:44.523Z,0
2022-10-03T00:20:44.473Z,0
2022-10-03T00:25:44.458Z,0
2022-10-03T00:30:44.507Z,0
2022-10-03T00:35:44.474Z,0
2022-10-03T00:40:44.484Z,0
2022-10-03T00:45:44.471Z,0
2022-10-03T00:50:44.481Z,0
2022-10-03T00:55:44.437Z,0
2022-10-03T01:00:44.481Z,0
2022-10-03T01:05:44.466Z,0
2022-10-03T01:10:44.490Z,0
2022-10-03T01:15:44.523Z,0
2022-10-03T01:20:44.424Z,0
2022-10-03T01:25:44.426Z,0
2022-10-03T01:30:44.460Z,0
2022-10-03T01:35:44.467Z,0
2022-10-03T01:40:44.447Z,0
2022-10-03T01:45:44.413Z,0
2022-10-03T01:50:44.559Z,0
2022-10-03T01:55:44.457Z,0
2022-10-03T02:00:44.496Z,0
2022-10-03T02:05:44.416Z,0
2022-10-03T02:10:44.457Z,0
2022-10-03T02:15:44.462Z,0
2022-10-03T02:20:44.446Z,0
2022-10-03T02:25:44.441Z,0
2022-10-03T02:30:44.427Z,0
2022-10-03T02:35:44.395Z,0
2022-10-03T02:40:44.393Z,0
2022-10-03T02:45:44.468Z,0
2022-10-03T02:50:44.522Z,0
2022-10-03T02:55:44.424Z,0
2022-10-03T03:00:44.450Z,0
2022-10-03T03:05:44.382Z,0
2022-10-03T03:10:44.426Z,0
2022-10-03T03:15:44.409Z,0
2022-10-03T03:20:44.365Z,0
2022-10-03T03:25:44.401Z,0
2022-10-03T03:30:44.399Z,0
2022-10-03T03:35:44.402Z,0
2022-10-03T03:40:44.395Z,0
2022-10-03T03:45:44.392Z,0
2022-10-03T03:50:44.403Z,0
2022-10-03T03:55:44.381Z,0
2022-10-03T04:00:44.431Z,0
2022-10-03T04:05:44.365Z,0
2022-10-03T04:10:44.379Z,0
2022-10-03T04:15:44.369Z,0
2022-10-03T04:20:44.369Z,0
2022-10-03T04:25:44.355Z,0
2022-10-03T04:30:44.372Z,0
2022-10-03T04:35:44.366Z,0
2022-10-03T04:40:44.359Z,0
2022-10-03T04:45:44.364Z,0
2022-10-03T04:50:44.378Z,0
2022-10-03T04:55:44.325Z,0
2022-10-03T05:00:44.367Z,0
2022-10-03T05:05:44.327Z,0
2022-10-03T05:10:44.346Z,0
2022-10-03T05:15:44.351Z,0
2022-10-03T05:20:44.305Z,0
2022-10-03T05:25:44.341Z,0
2022-10-03T05:30:44.364Z,0
2022-10-03T05:35:44.317Z,0
2022-10-03T05:40:44.301Z,1
2022-10-03T05:45:44.358Z,5
2022-10-03T05:50:44.340Z,6
2022-10-03T05:55:44.299Z,6
2022-10-03T06:00:44.293Z,16
2022-10-03T06:05:44.314Z,15
2022-10-03T06:10:44.308Z,15
2022-10-03T06:15:44.367Z,16
2022-10-03T06:20:44.294Z,21
2022-10-03T06:25:44.309Z,29
2022-10-03T06:30:44.384Z,32
2022-10-03T06:35:44.306Z,38
2022-10-03T06:40:44.314Z,46
2022-10-03T06:45:44.371Z,50
2022-10-03T06:50:44.317Z,45
2022-10-03T06:55:44.267Z,55
2022-10-03T07:00:44.269Z,64
2022-10-03T07:05:44.295Z,68
2022-10-03T07:10:44.294Z,98
2022-10-03T07:16:08.620Z,69
2022-10-03T07:20:44.277Z,118
2022-10-03T07:25:44.269Z,158
2022-10-03T07:30:44.372Z,135
2022-10-03T07:35:44.245Z,154
2022-10-03T07:40:44.284Z,154
2022-10-03T07:45:44.285Z,145
2022-10-03T07:50:44.322Z,136
2022-10-03T07:55:44.256Z,140
2022-10-03T08:00:44.247Z,133
2022-10-03T08:05:44.271Z,156
2022-10-03T08:10:44.259Z,162
2022-10-03T08:15:44.306Z,169
2022-10-03T08:20:44.259Z,210
2022-10-03T08:25:44.243Z,241
2022-10-03T08:30:44.289Z,328
2022-10-03T08:35:44.263Z,303
2022-10-03T08:40:44.263Z,304
2022-10-03T08:45:44.233Z,521
2022-10-03T08:50:44.232Z,669
2022-10-03T08:55:44.236Z,695
2022-10-03T09:00:44.231Z,722
2022-10-03T09:05:44.254Z,318
2022-10-03T09:10:44.247Z,410
2022-10-03T09:15:44.323Z,394
2022-10-03T09:20:44.254Z,585
2022-10-03T09:25:44.237Z,865
2022-10-03T09:30:44.241Z,565
2022-10-03T09:35:44.239Z,503
2022-10-03T09:40:44.234Z,333
2022-10-03T09:45:44.206Z,344
2022-10-03T09:50:44.248Z,785
2022-10-03T09:55:44.203Z,609
2022-10-03T10:00:44.234Z,679
2022-10-03T10:05:44.221Z,541
2022-10-03T10:10:44.215Z,563
2022-10-03T10:15:44.304Z,760
2022-10-03T10:20:44.239Z,723
2022-10-03T10:25:44.203Z,802
2022-10-03T10:30:44.225Z,649
2022-10-03T10:35:44.188Z,331
2022-10-03T10:40:44.211Z,414
2022-10-03T10:45:44.202Z,307
2022-10-03T10:50:44.248Z,332
2022-10-03T10:55:46.242Z,246
2022-10-03T11:00:44.243Z,313
2022-10-03T11:05:44.177Z,255
2022-10-03T11:10:44.229Z,631
2022-10-03T11:15:44.203Z,529
2022-10-03T11:20:44.194Z,434
2022-10-03T11:25:44.189Z,429
2022-10-03T11:30:44.206Z,842
2022-10-03T11:35:44.166Z,694
2022-10-03T11:40:44.190Z,804
2022-10-03T11:45:44.207Z,800
2022-10-03T11:50:44.164Z,649
2022-10-03T11:55:44.148Z,828
2022-10-03T12:00:44.171Z,831
2022-10-03T12:05:44.189Z,891
2022-10-03T12:10:44.206Z,229
2022-10-03T12:15:44.173Z,818
2022-10-03T12:20:44.169Z,264
2022-10-03T12:25:44.196Z,873
2022-10-03T12:30:44.182Z,418
2022-10-03T12:35:44.169Z,296
2022-10-03T12:40:44.198Z,269
2022-10-03T12:45:44.214Z,420
2022-10-03T12:50:44.206Z,396
2022-10-03T12:55:44.185Z,811
2022-10-03T13:00:46.039Z,466
2022-10-03T13:05:44.176Z,457
2022-10-03T13:10:44.188Z,230
2022-10-03T13:15:44.242Z,181
2022-10-03T13:20:44.165Z,105
2022-10-03T13:25:44.172Z,189
2022-10-03T13:30:44.190Z,195
2022-10-03T13:35:44.166Z,269
2022-10-03T13:40:44.176Z,222
2022-10-03T13:45:44.254Z,136
2022-10-03T13:50:44.157Z,153
2022-10-03T13:55:44.156Z,139
2022-10-03T14:00:44.152Z,138
2022-10-03T14:05:44.162Z,140
2022-10-03T14:10:44.157Z,195
2022-10-03T14:15:44.219Z,243
2022-10-03T14:20:44.143Z,158
2022-10-03T14:25:44.177Z,160
2022-10-03T14:31:04.399Z,147
2022-10-03T14:35:44.138Z,127
2022-10-03T14:40:44.144Z,136
2022-10-03T14:45:44.286Z,132
2022-10-03T14:50:44.170Z,133
2022-10-03T14:55:44.146Z,128
2022-10-03T15:00:44.254Z,68
2022-10-03T15:05:44.115Z,51
2022-10-03T15:10:44.143Z,54
2022-10-03T15:15:44.162Z,69
2022-10-03T15:20:44.126Z,63
2022-10-03T15:25:44.119Z,42
2022-10-03T15:30:44.248Z,27
2022-10-03T15:35:44.147Z,22
2022-10-03T15:40:44.138Z,21
2022-10-03T15:45:44.212Z,23
2022-10-03T15:50:44.162Z,27
2022-10-03T15:55:44.124Z,24
2022-10-03T16:00:44.198Z,22
2022-10-03T16:05:44.122Z,23
2022-10-03T16:10:44.134Z,26
2022-10-03T16:15:44.138Z,21
2022-10-03T16:20:44.142Z,17
2022-10-03T16:25:44.127Z,13
2022-10-03T16:30:44.111Z,11
2022-10-03T16:35:44.144Z,8
2022-10-03T16:40:44.099Z,11
2022-10-03T16:45:44.200Z,4
2022-10-03T16:50:44.152Z,2
2022-10-03T16:55:44.162Z,0
2022-10-03T17:00:44.127Z,0
2022-10-03T17:05:44.095Z,0
2022-10-03T17:10:44.098Z,0
2022-10-03T17:15:44.101Z,0
2022-10-03T17:20:44.122Z,0
2022-10-03T17:25:44.104Z,0
2022-10-03T17:30:44.125Z,0
2022-10-03T17:35:44.068Z,0
2022-10-03T17:40:44.116Z,0
2022-10-03T17:45:44.150Z,0
2022-10-03T17:50:44.139Z,0
2022-10-03T17:55:44.057Z,0
2022-10-03T18:00:44.090Z,0
2022-10-03T18:05:44.066Z,0
2022-10-03T18:10:44.126Z,0
2022-10-03T18:15:44.130Z,0
2022-10-03T18:20:44.094Z,0
2022-10-03T18:25:54.229Z,0
2022-10-03T18:30:44.090Z,0
2022-10-03T18:35:44.068Z,0
2022-10-03T18:40:44.074Z,0
2022-10-03T18:45:44.119Z,0
2022-10-03T18:50:44.096Z,0
2022-10-03T18:55:44.072Z,0
2022-10-03T19:00:44.073Z,0
2022-10-03T19:05:44.081Z,0
2022-10-03T19:10:44.089Z,0
2022-10-03T19:15:44.068Z,0
2022-10-03T19:20:44.055Z,0
2022-10-03T19:25:44.065Z,0
2022-10-03T19:30:44.055Z,0
2022-10-03T19:35:44.027Z,0
2022-10-03T19:40:44.058Z,0
2022-10-03T19:45:44.069Z,0
2022-10-03T19:50:44.074Z,0
2022-10-03T19:55:44.025Z,0
2022-10-03T20:00:44.098Z,0
2022-10-03T20:05:44.052Z,0
2022-10-03T20:10:44.045Z,0
2022-10-03T20:15:44.023Z,0
2022-10-03T20:20:44.010Z,0
2022-10-03T20:25:44.032Z,0
2022-10-03T20:30:44.034Z,0
2022-10-03T20:35:43.999Z,0
2022-10-03T20:40:44.013Z,0
2022-10-03T20:45:44.053Z,0
2022-10-03T20:50:44.009Z,0
2022-10-03T20:55:44.033Z,0
2022-10-03T21:00:44.173Z,0
2022-10-03T21:05:44.019Z,0
2022-10-03T21:10:44.045Z,0
2022-10-03T21:15:44.066Z,0
2022-10-03T21:20:43.970Z,0
2022-10-03T21:25:44.011Z,0
2022-10-03T21:30:44.023Z,0
2022-10-03T21:35:43.978Z,0
2022-10-03T21:40:44.014Z,0
2022-10-03T21:45:44.038Z,0
2022-10-03T21:50:44.015Z,0
2022-10-03T21:55:52.484Z,0
2022-10-03T22:00:43.995Z,0
2022-10-03T22:05:43.999Z,0
2022-10-03T22:10:44.017Z,0
2022-10-03T22:15:44.003Z,0
2022-10-03T22:20:43.957Z,0
2022-10-03T22:25:43.945Z,0
2022-10-03T22:30:44.103Z,0
2022-10-03T22:35:43.976Z,0
2022-10-03T22:40:43.946Z,0
2022-10-03T22:45:43.974Z,0
2022-10-03T22:50:43.971Z,0
2022-10-03T22:55:43.948Z,0
2022-10-03T23:00:43.964Z,0
2022-10-03T23:05:43.929Z,0
2022-10-03T23:10:43.978Z,0
2022-10-03T23:15:43.965Z,0
2022-10-03T23:20:43.931Z,0
2022-10-03T23:25:43.914Z,0
2022-10-03T23:30:43.955Z,0
2022-10-03T23:35:43.949Z,0
2022-10-03T23:40:43.929Z,0
2022-10-03T23:45:43.901Z,0
2022-10-03T23:50:43.935Z,0
2022-10-03T23:55:43.905Z,0
